sensor_id;sensor_type;location;lat;lon;timestamp;P1;durP1;ratioP1;P2;durP2;ratioP2
80481;SDS011;69797;43.864;21.410;2023-12-29T00:01:56;75.40;;;40.45;;
80481;SDS011;69797;43.864;21.410;2023-12-29T00:04:26;76.30;;;42.73;;
80481;SDS011;69797;43.864;21.410;2023-12-29T00:06:53;73.93;;;38.38;;
80481;SDS011;69797;43.864;21.410;2023-12-29T00:09:28;68.45;;;37.42;;
80481;SDS011;69797;43.864;21.410;2023-12-29T00:11:55;72.65;;;40.78;;
80481;SDS011;69797;43.864;21.410;2023-12-29T00:14:22;69.90;;;41.45;;
80481;SDS011;69797;43.864;21.410;2023-12-29T00:16:48;69.40;;;40.38;;
80481;SDS011;69797;43.864;21.410;2023-12-29T00:19:15;84.70;;;43.45;;
80481;SDS011;69797;43.864;21.410;2023-12-29T00:21:42;75.70;;;41.90;;
80481;SDS011;69797;43.864;21.410;2023-12-29T00:24:10;83.82;;;44.28;;
80481;SDS011;69797;43.864;21.410;2023-12-29T00:26:36;79.60;;;40.72;;
80481;SDS011;69797;43.864;21.410;2023-12-29T00:29:03;76.85;;;39.75;;
80481;SDS011;69797;43.864;21.410;2023-12-29T00:31:32;65.53;;;36.20;;
80481;SDS011;69797;43.864;21.410;2023-12-29T00:33:59;65.50;;;36.13;;
80481;SDS011;69797;43.864;21.410;2023-12-29T00:36:26;66.93;;;35.33;;
80481;SDS011;69797;43.864;21.410;2023-12-29T00:38:53;66.88;;;36.75;;
80481;SDS011;69797;43.864;21.410;2023-12-29T00:41:19;59.60;;;37.47;;
80481;SDS011;69797;43.864;21.410;2023-12-29T00:43:46;69.07;;;37.80;;
80481;SDS011;69797;43.864;21.410;2023-12-29T00:46:14;42.80;;;23.40;;
80481;SDS011;69797;43.864;21.410;2023-12-29T00:48:44;36.72;;;21.58;;
80481;SDS011;69797;43.864;21.410;2023-12-29T00:51:11;32.00;;;19.65;;
80481;SDS011;69797;43.864;21.410;2023-12-29T00:53:37;36.97;;;22.48;;
80481;SDS011;69797;43.864;21.410;2023-12-29T00:56:11;43.47;;;22.52;;
80481;SDS011;69797;43.864;21.410;2023-12-29T00:58:38;41.53;;;23.23;;
80481;SDS011;69797;43.864;21.410;2023-12-29T01:01:06;37.90;;;21.98;;
80481;SDS011;69797;43.864;21.410;2023-12-29T01:03:34;29.80;;;18.38;;
80481;SDS011;69797;43.864;21.410;2023-12-29T01:06:02;36.00;;;21.13;;
80481;SDS011;69797;43.864;21.410;2023-12-29T01:08:28;43.47;;;21.83;;
80481;SDS011;69797;43.864;21.410;2023-12-29T01:10:55;37.28;;;22.77;;
80481;SDS011;69797;43.864;21.410;2023-12-29T01:13:22;44.83;;;22.98;;
80481;SDS011;69797;43.864;21.410;2023-12-29T01:15:49;35.35;;;22.95;;
80481;SDS011;69797;43.864;21.410;2023-12-29T01:18:16;53.30;;;26.47;;
80481;SDS011;69797;43.864;21.410;2023-12-29T01:20:43;42.10;;;21.58;;
80481;SDS011;69797;43.864;21.410;2023-12-29T01:23:10;32.45;;;16.55;;
80481;SDS011;69797;43.864;21.410;2023-12-29T01:25:37;30.35;;;18.23;;
80481;SDS011;69797;43.864;21.410;2023-12-29T01:28:04;30.08;;;20.65;;
80481;SDS011;69797;43.864;21.410;2023-12-29T01:30:31;29.23;;;19.70;;
80481;SDS011;69797;43.864;21.410;2023-12-29T01:32:58;33.63;;;17.38;;
80481;SDS011;69797;43.864;21.410;2023-12-29T01:35:25;35.08;;;19.33;;
80481;SDS011;69797;43.864;21.410;2023-12-29T01:37:52;33.40;;;18.95;;
80481;SDS011;69797;43.864;21.410;2023-12-29T01:40:18;31.98;;;19.45;;
80481;SDS011;69797;43.864;21.410;2023-12-29T01:42:45;30.97;;;18.43;;
80481;SDS011;69797;43.864;21.410;2023-12-29T01:45:22;27.67;;;17.60;;
80481;SDS011;69797;43.864;21.410;2023-12-29T01:47:49;34.00;;;18.48;;
80481;SDS011;69797;43.864;21.410;2023-12-29T01:50:18;40.53;;;20.50;;
80481;SDS011;69797;43.864;21.410;2023-12-29T01:52:48;35.53;;;20.27;;
80481;SDS011;69797;43.864;21.410;2023-12-29T01:55:17;40.40;;;22.53;;
80481;SDS011;69797;43.864;21.410;2023-12-29T01:57:46;39.22;;;21.77;;
80481;SDS011;69797;43.864;21.410;2023-12-29T02:00:14;38.20;;;23.80;;
80481;SDS011;69797;43.864;21.410;2023-12-29T02:02:43;36.10;;;21.50;;
80481;SDS011;69797;43.864;21.410;2023-12-29T02:05:13;33.75;;;19.73;;
80481;SDS011;69797;43.864;21.410;2023-12-29T02:07:41;32.43;;;19.07;;
80481;SDS011;69797;43.864;21.410;2023-12-29T02:10:09;39.35;;;18.98;;
80481;SDS011;69797;43.864;21.410;2023-12-29T02:12:40;35.67;;;17.85;;
80481;SDS011;69797;43.864;21.410;2023-12-29T02:15:07;38.65;;;21.23;;
80481;SDS011;69797;43.864;21.410;2023-12-29T02:17:40;42.47;;;24.05;;
80481;SDS011;69797;43.864;21.410;2023-12-29T02:20:11;50.53;;;28.53;;
80481;SDS011;69797;43.864;21.410;2023-12-29T02:22:38;54.97;;;27.85;;
80481;SDS011;69797;43.864;21.410;2023-12-29T02:25:05;54.15;;;29.92;;
80481;SDS011;69797;43.864;21.410;2023-12-29T02:27:41;48.38;;;27.38;;
80481;SDS011;69797;43.864;21.410;2023-12-29T02:33:10;51.27;;;26.77;;
80481;SDS011;69797;43.864;21.410;2023-12-29T02:35:41;57.22;;;29.58;;
80481;SDS011;69797;43.864;21.410;2023-12-29T02:38:10;47.58;;;27.63;;
80481;SDS011;69797;43.864;21.410;2023-12-29T02:40:37;49.30;;;27.65;;
80481;SDS011;69797;43.864;21.410;2023-12-29T02:43:04;45.35;;;25.45;;
80481;SDS011;69797;43.864;21.410;2023-12-29T02:45:31;54.10;;;28.23;;
80481;SDS011;69797;43.864;21.410;2023-12-29T02:47:58;42.30;;;25.55;;
80481;SDS011;69797;43.864;21.410;2023-12-29T02:50:25;45.08;;;24.67;;
80481;SDS011;69797;43.864;21.410;2023-12-29T02:52:53;43.92;;;25.42;;
80481;SDS011;69797;43.864;21.410;2023-12-29T02:55:19;46.20;;;24.85;;
80481;SDS011;69797;43.864;21.410;2023-12-29T02:57:47;49.70;;;25.27;;
80481;SDS011;69797;43.864;21.410;2023-12-29T03:00:14;43.58;;;23.98;;
80481;SDS011;69797;43.864;21.410;2023-12-29T03:02:44;44.92;;;24.88;;
80481;SDS011;69797;43.864;21.410;2023-12-29T03:05:12;44.38;;;22.83;;
80481;SDS011;69797;43.864;21.410;2023-12-29T03:07:40;37.28;;;20.48;;
80481;SDS011;69797;43.864;21.410;2023-12-29T03:10:07;35.93;;;20.67;;
80481;SDS011;69797;43.864;21.410;2023-12-29T03:12:34;28.50;;;17.23;;
80481;SDS011;69797;43.864;21.410;2023-12-29T03:15:02;28.25;;;15.65;;
80481;SDS011;69797;43.864;21.410;2023-12-29T03:17:29;31.05;;;15.35;;
80481;SDS011;69797;43.864;21.410;2023-12-29T03:19:56;23.23;;;15.65;;
80481;SDS011;69797;43.864;21.410;2023-12-29T03:22:23;22.03;;;12.80;;
80481;SDS011;69797;43.864;21.410;2023-12-29T03:24:50;25.52;;;15.07;;
80481;SDS011;69797;43.864;21.410;2023-12-29T03:27:16;26.60;;;14.38;;
80481;SDS011;69797;43.864;21.410;2023-12-29T03:29:43;29.52;;;14.98;;
80481;SDS011;69797;43.864;21.410;2023-12-29T03:32:10;26.73;;;13.98;;
80481;SDS011;69797;43.864;21.410;2023-12-29T03:34:37;25.07;;;13.33;;
80481;SDS011;69797;43.864;21.410;2023-12-29T03:37:04;31.40;;;14.13;;
80481;SDS011;69797;43.864;21.410;2023-12-29T03:39:31;27.30;;;15.57;;
80481;SDS011;69797;43.864;21.410;2023-12-29T03:42:01;28.23;;;18.13;;
80481;SDS011;69797;43.864;21.410;2023-12-29T03:44:29;23.38;;;14.18;;
80481;SDS011;69797;43.864;21.410;2023-12-29T03:46:56;29.13;;;16.70;;
80481;SDS011;69797;43.864;21.410;2023-12-29T03:49:23;33.15;;;15.50;;
80481;SDS011;69797;43.864;21.410;2023-12-29T03:51:50;33.42;;;16.17;;
80481;SDS011;69797;43.864;21.410;2023-12-29T03:54:17;27.60;;;16.75;;
80481;SDS011;69797;43.864;21.410;2023-12-29T03:56:46;29.38;;;16.67;;
80481;SDS011;69797;43.864;21.410;2023-12-29T03:59:13;29.23;;;17.17;;
80481;SDS011;69797;43.864;21.410;2023-12-29T04:01:40;33.55;;;17.75;;
80481;SDS011;69797;43.864;21.410;2023-12-29T04:04:07;29.83;;;16.55;;
80481;SDS011;69797;43.864;21.410;2023-12-29T04:06:34;31.05;;;15.73;;
80481;SDS011;69797;43.864;21.410;2023-12-29T04:09:00;31.02;;;15.35;;
80481;SDS011;69797;43.864;21.410;2023-12-29T04:11:27;38.40;;;22.20;;
80481;SDS011;69797;43.864;21.410;2023-12-29T04:13:54;47.10;;;25.20;;
80481;SDS011;69797;43.864;21.410;2023-12-29T04:16:20;42.58;;;24.85;;
80481;SDS011;69797;43.864;21.410;2023-12-29T04:18:47;49.38;;;27.35;;
80481;SDS011;69797;43.864;21.410;2023-12-29T04:21:15;60.08;;;31.48;;
80481;SDS011;69797;43.864;21.410;2023-12-29T04:23:42;62.23;;;34.10;;
80481;SDS011;69797;43.864;21.410;2023-12-29T04:26:09;77.78;;;37.13;;
80481;SDS011;69797;43.864;21.410;2023-12-29T04:28:36;68.45;;;38.92;;
80481;SDS011;69797;43.864;21.410;2023-12-29T04:31:02;65.70;;;36.90;;
80481;SDS011;69797;43.864;21.410;2023-12-29T04:33:30;64.93;;;37.05;;
80481;SDS011;69797;43.864;21.410;2023-12-29T04:35:57;58.77;;;36.17;;
80481;SDS011;69797;43.864;21.410;2023-12-29T04:38:24;67.43;;;36.55;;
80481;SDS011;69797;43.864;21.410;2023-12-29T04:40:50;57.33;;;34.20;;
80481;SDS011;69797;43.864;21.410;2023-12-29T04:43:17;55.63;;;35.75;;
80481;SDS011;69797;43.864;21.410;2023-12-29T04:45:44;72.10;;;37.15;;
80481;SDS011;69797;43.864;21.410;2023-12-29T04:48:11;73.40;;;37.43;;
80481;SDS011;69797;43.864;21.410;2023-12-29T04:50:38;55.35;;;30.92;;
80481;SDS011;69797;43.864;21.410;2023-12-29T04:53:05;50.83;;;27.63;;
80481;SDS011;69797;43.864;21.410;2023-12-29T04:55:32;48.22;;;25.45;;
80481;SDS011;69797;43.864;21.410;2023-12-29T04:57:59;48.10;;;25.85;;
80481;SDS011;69797;43.864;21.410;2023-12-29T05:00:26;47.80;;;25.83;;
80481;SDS011;69797;43.864;21.410;2023-12-29T05:02:53;57.20;;;28.92;;
80481;SDS011;69797;43.864;21.410;2023-12-29T05:05:20;61.92;;;30.35;;
80481;SDS011;69797;43.864;21.410;2023-12-29T05:07:47;50.05;;;27.45;;
80481;SDS011;69797;43.864;21.410;2023-12-29T05:10:13;53.58;;;30.58;;
80481;SDS011;69797;43.864;21.410;2023-12-29T05:12:40;49.63;;;30.07;;
80481;SDS011;69797;43.864;21.410;2023-12-29T05:15:07;59.58;;;30.35;;
80481;SDS011;69797;43.864;21.410;2023-12-29T05:17:34;53.35;;;30.45;;
80481;SDS011;69797;43.864;21.410;2023-12-29T05:20:01;56.03;;;30.05;;
80481;SDS011;69797;43.864;21.410;2023-12-29T05:22:28;47.17;;;27.02;;
80481;SDS011;69797;43.864;21.410;2023-12-29T05:24:55;51.47;;;28.90;;
80481;SDS011;69797;43.864;21.410;2023-12-29T05:27:26;49.53;;;29.23;;
80481;SDS011;69797;43.864;21.410;2023-12-29T05:29:53;55.28;;;30.83;;
80481;SDS011;69797;43.864;21.410;2023-12-29T05:32:20;44.70;;;27.60;;
80481;SDS011;69797;43.864;21.410;2023-12-29T05:34:47;54.00;;;27.63;;
80481;SDS011;69797;43.864;21.410;2023-12-29T05:37:14;48.20;;;28.37;;
80481;SDS011;69797;43.864;21.410;2023-12-29T05:39:41;56.70;;;29.40;;
80481;SDS011;69797;43.864;21.410;2023-12-29T05:42:09;54.97;;;32.50;;
80481;SDS011;69797;43.864;21.410;2023-12-29T05:44:36;54.58;;;31.63;;
80481;SDS011;69797;43.864;21.410;2023-12-29T05:47:06;45.72;;;28.75;;
80481;SDS011;69797;43.864;21.410;2023-12-29T05:49:33;50.27;;;27.90;;
80481;SDS011;69797;43.864;21.410;2023-12-29T05:52:05;49.40;;;26.17;;
80481;SDS011;69797;43.864;21.410;2023-12-29T05:54:33;49.15;;;27.30;;
80481;SDS011;69797;43.864;21.410;2023-12-29T05:57:00;43.45;;;27.17;;
80481;SDS011;69797;43.864;21.410;2023-12-29T05:59:27;44.38;;;27.50;;
80481;SDS011;69797;43.864;21.410;2023-12-29T06:01:54;41.93;;;25.27;;
80481;SDS011;69797;43.864;21.410;2023-12-29T06:04:22;52.90;;;25.30;;
80481;SDS011;69797;43.864;21.410;2023-12-29T06:06:49;44.60;;;22.85;;
80481;SDS011;69797;43.864;21.410;2023-12-29T06:09:16;42.53;;;23.92;;
80481;SDS011;69797;43.864;21.410;2023-12-29T06:11:43;38.00;;;20.15;;
80481;SDS011;69797;43.864;21.410;2023-12-29T06:14:10;35.87;;;21.07;;
80481;SDS011;69797;43.864;21.410;2023-12-29T06:16:36;40.58;;;22.52;;
80481;SDS011;69797;43.864;21.410;2023-12-29T06:19:03;35.08;;;21.02;;
80481;SDS011;69797;43.864;21.410;2023-12-29T06:21:30;37.42;;;19.90;;
80481;SDS011;69797;43.864;21.410;2023-12-29T06:23:57;36.75;;;19.67;;
80481;SDS011;69797;43.864;21.410;2023-12-29T06:26:24;32.57;;;19.10;;
80481;SDS011;69797;43.864;21.410;2023-12-29T06:28:51;35.92;;;19.83;;
80481;SDS011;69797;43.864;21.410;2023-12-29T06:31:18;37.40;;;21.15;;
80481;SDS011;69797;43.864;21.410;2023-12-29T06:33:45;32.03;;;19.67;;
80481;SDS011;69797;43.864;21.410;2023-12-29T06:36:12;45.22;;;21.05;;
80481;SDS011;69797;43.864;21.410;2023-12-29T06:38:40;34.57;;;18.37;;
80481;SDS011;69797;43.864;21.410;2023-12-29T06:41:06;34.85;;;18.50;;
80481;SDS011;69797;43.864;21.410;2023-12-29T06:43:33;32.63;;;18.52;;
80481;SDS011;69797;43.864;21.410;2023-12-29T06:46:00;29.65;;;17.38;;
80481;SDS011;69797;43.864;21.410;2023-12-29T06:48:27;31.40;;;19.73;;
80481;SDS011;69797;43.864;21.410;2023-12-29T06:50:54;40.78;;;20.55;;
80481;SDS011;69797;43.864;21.410;2023-12-29T06:53:20;36.78;;;20.27;;
80481;SDS011;69797;43.864;21.410;2023-12-29T06:55:47;40.25;;;22.08;;
80481;SDS011;69797;43.864;21.410;2023-12-29T06:58:14;40.20;;;23.23;;
80481;SDS011;69797;43.864;21.410;2023-12-29T07:00:41;49.75;;;27.67;;
80481;SDS011;69797;43.864;21.410;2023-12-29T07:03:12;59.88;;;30.88;;
80481;SDS011;69797;43.864;21.410;2023-12-29T07:05:39;68.20;;;35.60;;
80481;SDS011;69797;43.864;21.410;2023-12-29T07:08:06;62.42;;;33.80;;
80481;SDS011;69797;43.864;21.410;2023-12-29T07:10:33;47.17;;;28.92;;
80481;SDS011;69797;43.864;21.410;2023-12-29T07:13:00;41.00;;;26.75;;
80481;SDS011;69797;43.864;21.410;2023-12-29T07:15:26;43.50;;;26.70;;
80481;SDS011;69797;43.864;21.410;2023-12-29T07:17:53;41.83;;;27.08;;
80481;SDS011;69797;43.864;21.410;2023-12-29T07:20:20;47.47;;;28.02;;
80481;SDS011;69797;43.864;21.410;2023-12-29T07:22:47;42.03;;;26.75;;
80481;SDS011;69797;43.864;21.410;2023-12-29T07:25:14;48.78;;;28.73;;
80481;SDS011;69797;43.864;21.410;2023-12-29T07:27:41;49.28;;;27.63;;
80481;SDS011;69797;43.864;21.410;2023-12-29T07:30:09;48.53;;;27.75;;
80481;SDS011;69797;43.864;21.410;2023-12-29T07:32:36;50.38;;;28.98;;
80481;SDS011;69797;43.864;21.410;2023-12-29T07:35:03;59.40;;;34.50;;
80481;SDS011;69797;43.864;21.410;2023-12-29T07:37:30;65.90;;;38.95;;
80481;SDS011;69797;43.864;21.410;2023-12-29T07:39:57;58.47;;;38.53;;
80481;SDS011;69797;43.864;21.410;2023-12-29T07:42:24;64.70;;;37.40;;
80481;SDS011;69797;43.864;21.410;2023-12-29T07:44:51;70.13;;;41.90;;
80481;SDS011;69797;43.864;21.410;2023-12-29T07:47:17;62.88;;;39.85;;
80481;SDS011;69797;43.864;21.410;2023-12-29T07:49:44;64.80;;;44.83;;
80481;SDS011;69797;43.864;21.410;2023-12-29T07:52:14;70.82;;;45.10;;
80481;SDS011;69797;43.864;21.410;2023-12-29T07:54:41;83.17;;;50.23;;
80481;SDS011;69797;43.864;21.410;2023-12-29T07:57:08;95.05;;;56.25;;
80481;SDS011;69797;43.864;21.410;2023-12-29T07:59:35;86.88;;;54.45;;
80481;SDS011;69797;43.864;21.410;2023-12-29T08:02:01;87.03;;;52.85;;
80481;SDS011;69797;43.864;21.410;2023-12-29T08:04:28;81.22;;;51.53;;
80481;SDS011;69797;43.864;21.410;2023-12-29T08:06:55;80.73;;;51.47;;
80481;SDS011;69797;43.864;21.410;2023-12-29T08:09:22;82.47;;;52.50;;
80481;SDS011;69797;43.864;21.410;2023-12-29T08:11:49;81.65;;;52.72;;
80481;SDS011;69797;43.864;21.410;2023-12-29T08:14:16;80.60;;;51.88;;
80481;SDS011;69797;43.864;21.410;2023-12-29T08:16:43;73.45;;;45.45;;
80481;SDS011;69797;43.864;21.410;2023-12-29T08:19:10;52.43;;;35.43;;
80481;SDS011;69797;43.864;21.410;2023-12-29T08:21:37;48.60;;;34.45;;
80481;SDS011;69797;43.864;21.410;2023-12-29T08:24:04;45.63;;;35.13;;
80481;SDS011;69797;43.864;21.410;2023-12-29T08:26:31;46.65;;;33.85;;
80481;SDS011;69797;43.864;21.410;2023-12-29T08:28:58;46.30;;;30.55;;
80481;SDS011;69797;43.864;21.410;2023-12-29T08:31:25;47.83;;;32.27;;
80481;SDS011;69797;43.864;21.410;2023-12-29T08:33:53;47.55;;;32.38;;
80481;SDS011;69797;43.864;21.410;2023-12-29T08:36:20;50.45;;;34.20;;
80481;SDS011;69797;43.864;21.410;2023-12-29T08:38:47;49.38;;;34.45;;
80481;SDS011;69797;43.864;21.410;2023-12-29T08:41:14;45.13;;;34.30;;
80481;SDS011;69797;43.864;21.410;2023-12-29T08:43:41;49.03;;;33.73;;
80481;SDS011;69797;43.864;21.410;2023-12-29T08:46:08;60.38;;;41.67;;
80481;SDS011;69797;43.864;21.410;2023-12-29T08:48:35;73.40;;;46.08;;
80481;SDS011;69797;43.864;21.410;2023-12-29T08:51:02;61.78;;;44.53;;
80481;SDS011;69797;43.864;21.410;2023-12-29T08:53:29;69.43;;;45.30;;
80481;SDS011;69797;43.864;21.410;2023-12-29T08:56:00;112.05;;;73.30;;
80481;SDS011;69797;43.864;21.410;2023-12-29T08:58:27;91.20;;;55.63;;
80481;SDS011;69797;43.864;21.410;2023-12-29T09:00:54;64.85;;;45.90;;
80481;SDS011;69797;43.864;21.410;2023-12-29T09:03:21;64.28;;;40.38;;
80481;SDS011;69797;43.864;21.410;2023-12-29T09:05:48;82.45;;;53.90;;
80481;SDS011;69797;43.864;21.410;2023-12-29T09:08:15;61.13;;;41.33;;
80481;SDS011;69797;43.864;21.410;2023-12-29T09:10:42;58.28;;;38.67;;
80481;SDS011;69797;43.864;21.410;2023-12-29T09:13:08;56.60;;;40.05;;
80481;SDS011;69797;43.864;21.410;2023-12-29T09:15:36;60.97;;;38.50;;
80481;SDS011;69797;43.864;21.410;2023-12-29T09:18:04;60.30;;;42.95;;
80481;SDS011;69797;43.864;21.410;2023-12-29T09:20:31;56.78;;;36.63;;
80481;SDS011;69797;43.864;21.410;2023-12-29T09:22:58;60.50;;;38.70;;
80481;SDS011;69797;43.864;21.410;2023-12-29T09:25:26;59.22;;;37.58;;
80481;SDS011;69797;43.864;21.410;2023-12-29T09:27:54;54.50;;;35.67;;
80481;SDS011;69797;43.864;21.410;2023-12-29T09:30:21;56.53;;;37.15;;
80481;SDS011;69797;43.864;21.410;2023-12-29T09:32:48;64.80;;;39.55;;
80481;SDS011;69797;43.864;21.410;2023-12-29T09:35:14;60.70;;;38.03;;
80481;SDS011;69797;43.864;21.410;2023-12-29T09:37:42;60.47;;;37.13;;
80481;SDS011;69797;43.864;21.410;2023-12-29T09:40:10;64.63;;;36.40;;
80481;SDS011;69797;43.864;21.410;2023-12-29T09:42:37;57.03;;;34.35;;
80481;SDS011;69797;43.864;21.410;2023-12-29T09:45:07;56.65;;;34.67;;
80481;SDS011;69797;43.864;21.410;2023-12-29T09:47:38;58.05;;;36.20;;
80481;SDS011;69797;43.864;21.410;2023-12-29T09:50:15;57.65;;;35.45;;
80481;SDS011;69797;43.864;21.410;2023-12-29T09:52:43;52.00;;;34.83;;
80481;SDS011;69797;43.864;21.410;2023-12-29T09:55:10;56.47;;;36.78;;
80481;SDS011;69797;43.864;21.410;2023-12-29T09:57:38;61.63;;;35.17;;
80481;SDS011;69797;43.864;21.410;2023-12-29T10:00:05;55.00;;;34.97;;
80481;SDS011;69797;43.864;21.410;2023-12-29T10:02:36;66.07;;;34.53;;
80481;SDS011;69797;43.864;21.410;2023-12-29T10:05:04;55.42;;;34.75;;
80481;SDS011;69797;43.864;21.410;2023-12-29T10:07:36;52.00;;;31.52;;
80481;SDS011;69797;43.864;21.410;2023-12-29T10:10:06;55.47;;;32.35;;
80481;SDS011;69797;43.864;21.410;2023-12-29T10:12:34;56.47;;;34.50;;
80481;SDS011;69797;43.864;21.410;2023-12-29T10:23:00;42.35;;;26.75;;
80481;SDS011;69797;43.864;21.410;2023-12-29T10:25:43;45.67;;;28.45;;
80481;SDS011;69797;43.864;21.410;2023-12-29T10:28:10;46.45;;;30.17;;
80481;SDS011;69797;43.864;21.410;2023-12-29T10:30:36;48.42;;;29.40;;
80481;SDS011;69797;43.864;21.410;2023-12-29T10:33:04;49.40;;;30.90;;
80481;SDS011;69797;43.864;21.410;2023-12-29T10:35:32;40.40;;;26.83;;
80481;SDS011;69797;43.864;21.410;2023-12-29T10:38:11;48.92;;;27.15;;
80481;SDS011;69797;43.864;21.410;2023-12-29T10:40:39;42.17;;;25.15;;
80481;SDS011;69797;43.864;21.410;2023-12-29T10:43:08;41.80;;;24.80;;
80481;SDS011;69797;43.864;21.410;2023-12-29T10:45:36;37.85;;;24.58;;
80481;SDS011;69797;43.864;21.410;2023-12-29T10:48:03;42.60;;;26.88;;
80481;SDS011;69797;43.864;21.410;2023-12-29T10:50:30;43.35;;;25.42;;
80481;SDS011;69797;43.864;21.410;2023-12-29T10:53:15;42.58;;;26.42;;
80481;SDS011;69797;43.864;21.410;2023-12-29T10:55:44;45.67;;;28.33;;
80481;SDS011;69797;43.864;21.410;2023-12-29T10:58:11;44.92;;;28.70;;
80481;SDS011;69797;43.864;21.410;2023-12-29T11:00:38;46.40;;;26.90;;
80481;SDS011;69797;43.864;21.410;2023-12-29T11:03:05;48.55;;;26.30;;
80481;SDS011;69797;43.864;21.410;2023-12-29T11:05:33;42.33;;;25.08;;
80481;SDS011;69797;43.864;21.410;2023-12-29T11:08:00;44.45;;;26.15;;
80481;SDS011;69797;43.864;21.410;2023-12-29T11:10:27;42.13;;;24.90;;
80481;SDS011;69797;43.864;21.410;2023-12-29T11:12:56;46.00;;;26.80;;
80481;SDS011;69797;43.864;21.410;2023-12-29T11:15:24;52.15;;;32.53;;
80481;SDS011;69797;43.864;21.410;2023-12-29T11:17:51;65.78;;;38.83;;
80481;SDS011;69797;43.864;21.410;2023-12-29T11:20:22;40.38;;;25.88;;
80481;SDS011;69797;43.864;21.410;2023-12-29T11:22:49;46.72;;;27.00;;
80481;SDS011;69797;43.864;21.410;2023-12-29T11:25:16;37.22;;;24.85;;
80481;SDS011;69797;43.864;21.410;2023-12-29T11:27:43;36.90;;;23.50;;
80481;SDS011;69797;43.864;21.410;2023-12-29T11:30:11;41.40;;;27.73;;
80481;SDS011;69797;43.864;21.410;2023-12-29T11:32:48;36.33;;;23.05;;
80481;SDS011;69797;43.864;21.410;2023-12-29T11:35:30;37.70;;;23.75;;
80481;SDS011;69797;43.864;21.410;2023-12-29T11:43:31;38.50;;;23.42;;
80481;SDS011;69797;43.864;21.410;2023-12-29T11:45:59;38.25;;;23.63;;
80481;SDS011;69797;43.864;21.410;2023-12-29T11:51:35;43.70;;;25.42;;
80481;SDS011;69797;43.864;21.410;2023-12-29T11:54:02;40.58;;;24.00;;
80481;SDS011;69797;43.864;21.410;2023-12-29T11:56:31;42.08;;;24.83;;
80481;SDS011;69797;43.864;21.410;2023-12-29T11:59:16;38.28;;;25.38;;
80481;SDS011;69797;43.864;21.410;2023-12-29T12:01:50;40.22;;;25.00;;
80481;SDS011;69797;43.864;21.410;2023-12-29T12:07:03;38.92;;;26.15;;
80481;SDS011;69797;43.864;21.410;2023-12-29T12:09:31;48.38;;;26.23;;
80481;SDS011;69797;43.864;21.410;2023-12-29T12:12:04;40.78;;;24.30;;
80481;SDS011;69797;43.864;21.410;2023-12-29T12:14:45;37.72;;;24.52;;
80481;SDS011;69797;43.864;21.410;2023-12-29T12:17:28;37.83;;;25.13;;
80481;SDS011;69797;43.864;21.410;2023-12-29T12:20:04;46.88;;;27.83;;
80481;SDS011;69797;43.864;21.410;2023-12-29T12:22:37;47.95;;;28.33;;
80481;SDS011;69797;43.864;21.410;2023-12-29T12:25:05;42.10;;;26.73;;
80481;SDS011;69797;43.864;21.410;2023-12-29T12:27:37;40.60;;;27.25;;
80481;SDS011;69797;43.864;21.410;2023-12-29T12:30:04;39.08;;;25.73;;
80481;SDS011;69797;43.864;21.410;2023-12-29T12:32:32;44.53;;;28.75;;
80481;SDS011;69797;43.864;21.410;2023-12-29T12:34:59;48.40;;;29.88;;
80481;SDS011;69797;43.864;21.410;2023-12-29T12:37:27;44.55;;;29.95;;
80481;SDS011;69797;43.864;21.410;2023-12-29T12:39:55;53.92;;;32.83;;
80481;SDS011;69797;43.864;21.410;2023-12-29T12:42:22;43.67;;;25.58;;
80481;SDS011;69797;43.864;21.410;2023-12-29T12:44:56;41.95;;;27.20;;
80481;SDS011;69797;43.864;21.410;2023-12-29T12:47:42;41.80;;;26.05;;
80481;SDS011;69797;43.864;21.410;2023-12-29T12:50:12;41.55;;;25.58;;
80481;SDS011;69797;43.864;21.410;2023-12-29T12:52:40;44.30;;;26.95;;
80481;SDS011;69797;43.864;21.410;2023-12-29T12:55:07;47.53;;;27.60;;
80481;SDS011;69797;43.864;21.410;2023-12-29T12:57:35;43.47;;;26.17;;
80481;SDS011;69797;43.864;21.410;2023-12-29T13:00:03;45.35;;;27.63;;
80481;SDS011;69797;43.864;21.410;2023-12-29T13:02:32;53.30;;;30.40;;
80481;SDS011;69797;43.864;21.410;2023-12-29T13:05:00;51.55;;;28.38;;
80481;SDS011;69797;43.864;21.410;2023-12-29T13:07:31;50.42;;;30.88;;
80481;SDS011;69797;43.864;21.410;2023-12-29T13:09:58;49.20;;;30.45;;
80481;SDS011;69797;43.864;21.410;2023-12-29T13:12:25;49.42;;;31.45;;
80481;SDS011;69797;43.864;21.410;2023-12-29T13:14:52;50.05;;;27.88;;
80481;SDS011;69797;43.864;21.410;2023-12-29T13:17:19;49.85;;;31.05;;
80481;SDS011;69797;43.864;21.410;2023-12-29T13:19:55;54.75;;;30.52;;
80481;SDS011;69797;43.864;21.410;2023-12-29T13:22:24;57.75;;;31.90;;
80481;SDS011;69797;43.864;21.410;2023-12-29T13:24:53;52.45;;;32.53;;
80481;SDS011;69797;43.864;21.410;2023-12-29T13:27:21;63.45;;;32.92;;
80481;SDS011;69797;43.864;21.410;2023-12-29T13:29:48;59.50;;;33.83;;
80481;SDS011;69797;43.864;21.410;2023-12-29T13:32:17;54.75;;;32.55;;
80481;SDS011;69797;43.864;21.410;2023-12-29T13:42:30;93.60;;;52.10;;
80481;SDS011;69797;43.864;21.410;2023-12-29T13:44:58;120.57;;;67.22;;
80481;SDS011;69797;43.864;21.410;2023-12-29T13:47:27;79.38;;;43.97;;
80481;SDS011;69797;43.864;21.410;2023-12-29T13:49:54;79.28;;;47.53;;
80481;SDS011;69797;43.864;21.410;2023-12-29T13:52:21;76.22;;;44.97;;
80481;SDS011;69797;43.864;21.410;2023-12-29T13:54:48;66.80;;;40.03;;
80481;SDS011;69797;43.864;21.410;2023-12-29T13:57:16;75.22;;;43.60;;
80481;SDS011;69797;43.864;21.410;2023-12-29T13:59:44;68.55;;;39.38;;
80481;SDS011;69797;43.864;21.410;2023-12-29T14:02:45;68.85;;;39.25;;
80481;SDS011;69797;43.864;21.410;2023-12-29T14:05:18;72.20;;;40.97;;
80481;SDS011;69797;43.864;21.410;2023-12-29T14:07:47;66.55;;;41.80;;
80481;SDS011;69797;43.864;21.410;2023-12-29T14:10:20;66.97;;;39.42;;
80481;SDS011;69797;43.864;21.410;2023-12-29T14:12:47;64.53;;;38.50;;
80481;SDS011;69797;43.864;21.410;2023-12-29T14:15:14;69.85;;;39.25;;
80481;SDS011;69797;43.864;21.410;2023-12-29T14:17:41;65.72;;;35.85;;
80481;SDS011;69797;43.864;21.410;2023-12-29T14:20:09;57.03;;;33.97;;
80481;SDS011;69797;43.864;21.410;2023-12-29T14:22:36;58.58;;;34.20;;
80481;SDS011;69797;43.864;21.410;2023-12-29T14:25:06;61.20;;;36.25;;
80481;SDS011;69797;43.864;21.410;2023-12-29T14:27:34;73.50;;;40.30;;
80481;SDS011;69797;43.864;21.410;2023-12-29T14:30:01;65.68;;;37.67;;
80481;SDS011;69797;43.864;21.410;2023-12-29T14:32:28;61.42;;;37.40;;
80481;SDS011;69797;43.864;21.410;2023-12-29T14:34:56;69.38;;;37.78;;
80481;SDS011;69797;43.864;21.410;2023-12-29T14:37:23;64.32;;;38.63;;
80481;SDS011;69797;43.864;21.410;2023-12-29T14:39:51;67.18;;;37.83;;
80481;SDS011;69797;43.864;21.410;2023-12-29T14:42:18;66.72;;;38.53;;
80481;SDS011;69797;43.864;21.410;2023-12-29T14:44:46;70.55;;;41.53;;